sensor_id;sensor_type;location;lat;lon;timestamp;P1;durP1;ratioP1;P2;durP2;ratioP2
37805;SDS011;25082;50.870;0.022;2023-03-01T00:01:24;5.63;;;1.90;;
37805;SDS011;25082;50.870;0.022;2023-03-01T00:03:52;2.72;;;1.27;;
37805;SDS011;25082;50.870;0.022;2023-03-01T00:06:18;1.95;;;1.42;;
37805;SDS011;25082;50.870;0.022;2023-03-01T00:08:45;2.53;;;1.85;;
37805;SDS011;25082;50.870;0.022;2023-03-01T00:13:47;6.35;;;2.08;;
37805;SDS011;25082;50.870;0.022;2023-03-01T00:16:18;2.65;;;1.95;;
37805;SDS011;25082;50.870;0.022;2023-03-01T00:18:49;3.30;;;1.98;;
37805;SDS011;25082;50.870;0.022;2023-03-01T00:21:16;3.38;;;2.15;;
37805;SDS011;25082;50.870;0.022;2023-03-01T00:23:42;3.78;;;2.55;;
37805;SDS011;25082;50.870;0.022;2023-03-01T00:26:09;3.83;;;2.20;;
37805;SDS011;25082;50.870;0.022;2023-03-01T00:28:37;2.78;;;2.20;;
37805;SDS011;25082;50.870;0.022;2023-03-01T00:31:07;2.55;;;2.10;;
37805;SDS011;25082;50.870;0.022;2023-03-01T00:33:34;3.10;;;2.10;;
37805;SDS011;25082;50.870;0.022;2023-03-01T00:36:00;3.95;;;2.58;;
37805;SDS011;25082;50.870;0.022;2023-03-01T00:38:26;4.53;;;2.30;;
37805;SDS011;25082;50.870;0.022;2023-03-01T00:40:52;3.95;;;2.58;;
37805;SDS011;25082;50.870;0.022;2023-03-01T00:43:18;3.22;;;2.50;;
37805;SDS011;25082;50.870;0.022;2023-03-01T00:45:44;4.50;;;2.17;;
37805;SDS011;25082;50.870;0.022;2023-03-01T00:48:09;3.33;;;2.22;;
37805;SDS011;25082;50.870;0.022;2023-03-01T00:50:35;3.20;;;2.47;;
37805;SDS011;25082;50.870;0.022;2023-03-01T00:53:01;2.25;;;1.98;;
37805;SDS011;25082;50.870;0.022;2023-03-01T00:55:27;2.97;;;2.20;;
37805;SDS011;25082;50.870;0.022;2023-03-01T00:57:52;3.40;;;2.78;;
37805;SDS011;25082;50.870;0.022;2023-03-01T01:00:19;5.40;;;2.35;;
37805;SDS011;25082;50.870;0.022;2023-03-01T01:02:45;4.50;;;2.67;;
37805;SDS011;25082;50.870;0.022;2023-03-01T01:05:12;3.60;;;2.38;;
37805;SDS011;25082;50.870;0.022;2023-03-01T01:07:38;3.58;;;2.75;;
37805;SDS011;25082;50.870;0.022;2023-03-01T01:10:04;3.40;;;2.28;;
37805;SDS011;25082;50.870;0.022;2023-03-01T01:12:31;4.15;;;3.03;;
37805;SDS011;25082;50.870;0.022;2023-03-01T01:14:57;5.35;;;2.40;;
37805;SDS011;25082;50.870;0.022;2023-03-01T01:17:23;4.53;;;2.55;;
37805;SDS011;25082;50.870;0.022;2023-03-01T01:19:48;4.30;;;2.78;;
37805;SDS011;25082;50.870;0.022;2023-03-01T01:22:14;5.93;;;3.00;;
37805;SDS011;25082;50.870;0.022;2023-03-01T01:24:40;3.42;;;2.70;;
37805;SDS011;25082;50.870;0.022;2023-03-01T01:27:05;3.97;;;2.42;;
37805;SDS011;25082;50.870;0.022;2023-03-01T01:29:32;3.90;;;2.55;;
37805;SDS011;25082;50.870;0.022;2023-03-01T01:31:58;2.10;;;1.90;;
37805;SDS011;25082;50.870;0.022;2023-03-01T01:34:24;3.05;;;2.50;;
37805;SDS011;25082;50.870;0.022;2023-03-01T01:36:50;2.75;;;2.00;;
37805;SDS011;25082;50.870;0.022;2023-03-01T01:39:19;3.15;;;2.67;;
37805;SDS011;25082;50.870;0.022;2023-03-01T01:41:45;3.28;;;2.92;;
37805;SDS011;25082;50.870;0.022;2023-03-01T01:44:13;3.30;;;3.00;;
37805;SDS011;25082;50.870;0.022;2023-03-01T01:49:28;3.83;;;2.80;;
37805;SDS011;25082;50.870;0.022;2023-03-01T01:52:02;3.03;;;2.33;;
37805;SDS011;25082;50.870;0.022;2023-03-01T01:54:44;5.45;;;3.25;;
37805;SDS011;25082;50.870;0.022;2023-03-01T01:57:13;3.63;;;2.90;;
37805;SDS011;25082;50.870;0.022;2023-03-01T01:59:43;3.90;;;2.95;;
37805;SDS011;25082;50.870;0.022;2023-03-01T02:02:12;5.32;;;2.78;;
37805;SDS011;25082;50.870;0.022;2023-03-01T02:04:38;4.15;;;2.55;;
37805;SDS011;25082;50.870;0.022;2023-03-01T02:07:06;3.38;;;2.75;;
37805;SDS011;25082;50.870;0.022;2023-03-01T02:09:46;3.00;;;2.70;;
37805;SDS011;25082;50.870;0.022;2023-03-01T02:12:14;5.47;;;3.28;;
37805;SDS011;25082;50.870;0.022;2023-03-01T02:14:42;4.40;;;2.63;;
37805;SDS011;25082;50.870;0.022;2023-03-01T02:17:09;3.15;;;2.50;;
37805;SDS011;25082;50.870;0.022;2023-03-01T02:19:44;3.95;;;2.53;;
37805;SDS011;25082;50.870;0.022;2023-03-01T02:27:45;4.47;;;3.25;;
37805;SDS011;25082;50.870;0.022;2023-03-01T02:30:20;4.40;;;2.88;;
37805;SDS011;25082;50.870;0.022;2023-03-01T02:32:47;5.57;;;3.40;;
37805;SDS011;25082;50.870;0.022;2023-03-01T02:35:16;4.65;;;3.08;;
37805;SDS011;25082;50.870;0.022;2023-03-01T02:37:44;5.65;;;3.15;;
37805;SDS011;25082;50.870;0.022;2023-03-01T02:40:11;4.05;;;3.30;;
37805;SDS011;25082;50.870;0.022;2023-03-01T02:42:51;3.70;;;3.15;;
37805;SDS011;25082;50.870;0.022;2023-03-01T02:45:20;5.00;;;3.53;;
37805;SDS011;25082;50.870;0.022;2023-03-01T02:47:46;4.95;;;2.85;;
37805;SDS011;25082;50.870;0.022;2023-03-01T02:56:11;3.53;;;3.22;;
37805;SDS011;25082;50.870;0.022;2023-03-01T02:58:41;5.10;;;3.70;;
37805;SDS011;25082;50.870;0.022;2023-03-01T03:01:10;5.97;;;3.70;;
37805;SDS011;25082;50.870;0.022;2023-03-01T03:03:38;4.90;;;3.55;;
37805;SDS011;25082;50.870;0.022;2023-03-01T03:06:04;5.88;;;3.97;;
37805;SDS011;25082;50.870;0.022;2023-03-01T03:08:30;4.95;;;3.95;;
37805;SDS011;25082;50.870;0.022;2023-03-01T03:10:55;4.45;;;3.85;;
37805;SDS011;25082;50.870;0.022;2023-03-01T03:13:21;4.72;;;3.50;;
37805;SDS011;25082;50.870;0.022;2023-03-01T03:15:47;5.13;;;4.03;;
37805;SDS011;25082;50.870;0.022;2023-03-01T03:18:15;4.10;;;3.38;;
37805;SDS011;25082;50.870;0.022;2023-03-01T03:20:42;4.13;;;3.53;;
37805;SDS011;25082;50.870;0.022;2023-03-01T03:23:08;6.22;;;4.22;;
37805;SDS011;25082;50.870;0.022;2023-03-01T03:25:34;4.03;;;3.42;;
37805;SDS011;25082;50.870;0.022;2023-03-01T03:28:03;6.32;;;3.83;;
37805;SDS011;25082;50.870;0.022;2023-03-01T03:30:35;4.97;;;3.63;;
37805;SDS011;25082;50.870;0.022;2023-03-01T03:33:05;6.40;;;4.05;;
37805;SDS011;25082;50.870;0.022;2023-03-01T03:35:33;4.78;;;3.90;;
37805;SDS011;25082;50.870;0.022;2023-03-01T03:38:05;4.32;;;3.85;;
37805;SDS011;25082;50.870;0.022;2023-03-01T03:43:05;4.97;;;3.78;;
37805;SDS011;25082;50.870;0.022;2023-03-01T03:45:32;5.88;;;4.05;;
37805;SDS011;25082;50.870;0.022;2023-03-01T03:47:59;4.45;;;3.95;;
37805;SDS011;25082;50.870;0.022;2023-03-01T03:50:25;5.32;;;3.97;;
37805;SDS011;25082;50.870;0.022;2023-03-01T03:52:51;5.53;;;4.03;;
37805;SDS011;25082;50.870;0.022;2023-03-01T03:55:16;6.20;;;3.95;;
37805;SDS011;25082;50.870;0.022;2023-03-01T03:57:44;4.55;;;3.33;;
37805;SDS011;25082;50.870;0.022;2023-03-01T04:02:46;5.53;;;4.20;;
37805;SDS011;25082;50.870;0.022;2023-03-01T04:05:13;5.40;;;4.22;;
37805;SDS011;25082;50.870;0.022;2023-03-01T04:07:40;7.72;;;4.47;;
37805;SDS011;25082;50.870;0.022;2023-03-01T04:10:09;5.57;;;4.32;;
37805;SDS011;25082;50.870;0.022;2023-03-01T04:12:40;4.97;;;4.30;;
37805;SDS011;25082;50.870;0.022;2023-03-01T04:15:08;5.75;;;4.60;;
37805;SDS011;25082;50.870;0.022;2023-03-01T04:17:42;5.22;;;3.97;;
37805;SDS011;25082;50.870;0.022;2023-03-01T04:20:09;6.13;;;4.47;;
37805;SDS011;25082;50.870;0.022;2023-03-01T04:22:38;5.63;;;4.15;;
37805;SDS011;25082;50.870;0.022;2023-03-01T04:25:05;7.00;;;4.85;;
37805;SDS011;25082;50.870;0.022;2023-03-01T04:27:35;5.82;;;4.68;;
37805;SDS011;25082;50.870;0.022;2023-03-01T04:30:02;6.30;;;4.43;;
37805;SDS011;25082;50.870;0.022;2023-03-01T04:32:28;9.48;;;4.68;;
37805;SDS011;25082;50.870;0.022;2023-03-01T04:34:54;6.95;;;4.68;;
37805;SDS011;25082;50.870;0.022;2023-03-01T04:37:20;6.82;;;4.82;;
37805;SDS011;25082;50.870;0.022;2023-03-01T04:39:46;6.32;;;4.90;;
37805;SDS011;25082;50.870;0.022;2023-03-01T04:42:13;6.60;;;5.15;;
37805;SDS011;25082;50.870;0.022;2023-03-01T04:44:44;7.60;;;4.97;;
37805;SDS011;25082;50.870;0.022;2023-03-01T04:47:11;5.88;;;4.47;;
37805;SDS011;25082;50.870;0.022;2023-03-01T04:49:37;6.25;;;4.43;;
37805;SDS011;25082;50.870;0.022;2023-03-01T04:52:03;5.05;;;4.20;;
37805;SDS011;25082;50.870;0.022;2023-03-01T04:54:30;6.63;;;4.63;;
37805;SDS011;25082;50.870;0.022;2023-03-01T04:56:57;6.50;;;4.88;;
37805;SDS011;25082;50.870;0.022;2023-03-01T04:59:23;5.55;;;4.25;;
37805;SDS011;25082;50.870;0.022;2023-03-01T05:01:50;5.00;;;4.38;;
37805;SDS011;25082;50.870;0.022;2023-03-01T05:04:16;8.05;;;4.07;;
37805;SDS011;25082;50.870;0.022;2023-03-01T05:06:42;5.80;;;4.78;;
37805;SDS011;25082;50.870;0.022;2023-03-01T05:09:09;5.18;;;4.45;;
37805;SDS011;25082;50.870;0.022;2023-03-01T05:11:36;5.95;;;4.22;;
37805;SDS011;25082;50.870;0.022;2023-03-01T05:14:03;5.55;;;4.75;;
37805;SDS011;25082;50.870;0.022;2023-03-01T05:16:29;6.00;;;4.50;;
37805;SDS011;25082;50.870;0.022;2023-03-01T05:18:55;5.88;;;4.57;;
37805;SDS011;25082;50.870;0.022;2023-03-01T05:21:22;4.72;;;4.22;;
37805;SDS011;25082;50.870;0.022;2023-03-01T05:23:48;5.35;;;4.57;;
37805;SDS011;25082;50.870;0.022;2023-03-01T05:26:14;5.60;;;4.30;;
37805;SDS011;25082;50.870;0.022;2023-03-01T05:28:40;5.25;;;4.35;;
37805;SDS011;25082;50.870;0.022;2023-03-01T05:31:06;7.53;;;4.85;;
37805;SDS011;25082;50.870;0.022;2023-03-01T05:33:37;5.43;;;4.47;;
37805;SDS011;25082;50.870;0.022;2023-03-01T05:36:05;5.28;;;4.22;;
37805;SDS011;25082;50.870;0.022;2023-03-01T05:38:32;7.25;;;4.95;;
37805;SDS011;25082;50.870;0.022;2023-03-01T05:40:58;5.70;;;4.28;;
37805;SDS011;25082;50.870;0.022;2023-03-01T05:43:24;6.75;;;4.63;;
37805;SDS011;25082;50.870;0.022;2023-03-01T05:45:50;5.00;;;3.72;;
37805;SDS011;25082;50.870;0.022;2023-03-01T05:48:16;5.05;;;3.83;;
37805;SDS011;25082;50.870;0.022;2023-03-01T05:50:44;6.10;;;4.13;;
37805;SDS011;25082;50.870;0.022;2023-03-01T05:53:16;6.90;;;4.40;;
37805;SDS011;25082;50.870;0.022;2023-03-01T05:58:13;6.03;;;4.15;;
37805;SDS011;25082;50.870;0.022;2023-03-01T06:00:42;7.85;;;5.22;;
37805;SDS011;25082;50.870;0.022;2023-03-01T06:03:09;5.60;;;4.28;;
37805;SDS011;25082;50.870;0.022;2023-03-01T06:05:36;7.00;;;4.60;;
37805;SDS011;25082;50.870;0.022;2023-03-01T06:08:03;6.32;;;4.68;;
37805;SDS011;25082;50.870;0.022;2023-03-01T06:10:29;5.80;;;4.10;;
37805;SDS011;25082;50.870;0.022;2023-03-01T06:12:54;6.15;;;4.30;;
37805;SDS011;25082;50.870;0.022;2023-03-01T06:15:21;5.57;;;4.50;;
37805;SDS011;25082;50.870;0.022;2023-03-01T06:17:47;7.05;;;4.30;;
37805;SDS011;25082;50.870;0.022;2023-03-01T06:20:15;5.65;;;4.55;;
37805;SDS011;25082;50.870;0.022;2023-03-01T06:22:43;5.10;;;3.95;;
37805;SDS011;25082;50.870;0.022;2023-03-01T06:25:09;5.32;;;4.32;;
37805;SDS011;25082;50.870;0.022;2023-03-01T06:27:37;6.68;;;4.53;;
37805;SDS011;25082;50.870;0.022;2023-03-01T06:30:04;7.47;;;4.45;;
37805;SDS011;25082;50.870;0.022;2023-03-01T06:32:32;5.03;;;3.60;;
37805;SDS011;25082;50.870;0.022;2023-03-01T06:34:57;5.50;;;4.30;;
37805;SDS011;25082;50.870;0.022;2023-03-01T06:37:24;4.78;;;3.90;;
37805;SDS011;25082;50.870;0.022;2023-03-01T06:39:50;5.75;;;4.10;;
37805;SDS011;25082;50.870;0.022;2023-03-01T06:42:16;6.68;;;4.35;;
37805;SDS011;25082;50.870;0.022;2023-03-01T06:44:41;8.90;;;4.43;;
37805;SDS011;25082;50.870;0.022;2023-03-01T06:47:07;5.45;;;4.03;;
37805;SDS011;25082;50.870;0.022;2023-03-01T06:49:33;4.40;;;3.65;;
37805;SDS011;25082;50.870;0.022;2023-03-01T06:51:58;4.95;;;3.72;;
37805;SDS011;25082;50.870;0.022;2023-03-01T06:54:24;5.32;;;3.67;;
37805;SDS011;25082;50.870;0.022;2023-03-01T06:56:50;4.25;;;3.15;;
37805;SDS011;25082;50.870;0.022;2023-03-01T06:59:16;5.38;;;3.63;;
37805;SDS011;25082;50.870;0.022;2023-03-01T07:01:42;7.22;;;4.07;;
37805;SDS011;25082;50.870;0.022;2023-03-01T07:04:09;3.83;;;3.03;;
37805;SDS011;25082;50.870;0.022;2023-03-01T07:06:35;6.15;;;4.18;;
37805;SDS011;25082;50.870;0.022;2023-03-01T07:09:01;5.18;;;3.30;;
37805;SDS011;25082;50.870;0.022;2023-03-01T07:11:26;5.15;;;3.50;;
37805;SDS011;25082;50.870;0.022;2023-03-01T07:13:52;3.70;;;2.90;;
37805;SDS011;25082;50.870;0.022;2023-03-01T07:16:18;5.20;;;3.15;;
37805;SDS011;25082;50.870;0.022;2023-03-01T07:18:45;4.60;;;3.30;;
37805;SDS011;25082;50.870;0.022;2023-03-01T07:21:12;5.50;;;3.30;;
37805;SDS011;25082;50.870;0.022;2023-03-01T07:23:39;4.20;;;3.05;;
37805;SDS011;25082;50.870;0.022;2023-03-01T07:26:05;4.10;;;3.20;;
37805;SDS011;25082;50.870;0.022;2023-03-01T07:28:31;4.90;;;3.45;;
37805;SDS011;25082;50.870;0.022;2023-03-01T07:31:01;3.28;;;2.80;;
37805;SDS011;25082;50.870;0.022;2023-03-01T07:33:27;3.63;;;2.90;;
37805;SDS011;25082;50.870;0.022;2023-03-01T07:35:57;5.28;;;3.00;;
37805;SDS011;25082;50.870;0.022;2023-03-01T07:38:24;3.75;;;2.95;;
37805;SDS011;25082;50.870;0.022;2023-03-01T07:40:50;3.88;;;2.58;;
37805;SDS011;25082;50.870;0.022;2023-03-01T07:43:15;5.68;;;3.20;;
37805;SDS011;25082;50.870;0.022;2023-03-01T07:45:41;3.88;;;3.03;;
37805;SDS011;25082;50.870;0.022;2023-03-01T07:48:07;5.07;;;2.97;;
37805;SDS011;25082;50.870;0.022;2023-03-01T07:50:33;4.18;;;2.78;;
37805;SDS011;25082;50.870;0.022;2023-03-01T07:52:59;3.85;;;2.47;;
37805;SDS011;25082;50.870;0.022;2023-03-01T07:55:24;3.55;;;2.60;;
37805;SDS011;25082;50.870;0.022;2023-03-01T07:57:50;2.95;;;2.17;;
37805;SDS011;25082;50.870;0.022;2023-03-01T08:00:16;2.38;;;1.88;;
37805;SDS011;25082;50.870;0.022;2023-03-01T08:02:42;4.93;;;2.20;;
37805;SDS011;25082;50.870;0.022;2023-03-01T08:05:08;3.75;;;2.55;;
37805;SDS011;25082;50.870;0.022;2023-03-01T08:07:35;3.22;;;2.08;;
37805;SDS011;25082;50.870;0.022;2023-03-01T08:10:01;3.90;;;2.35;;
37805;SDS011;25082;50.870;0.022;2023-03-01T08:12:26;3.72;;;2.10;;
37805;SDS011;25082;50.870;0.022;2023-03-01T08:14:53;2.47;;;1.75;;
37805;SDS011;25082;50.870;0.022;2023-03-01T08:17:19;3.58;;;2.20;;
37805;SDS011;25082;50.870;0.022;2023-03-01T08:19:45;3.25;;;1.95;;
37805;SDS011;25082;50.870;0.022;2023-03-01T08:22:10;3.28;;;2.03;;
37805;SDS011;25082;50.870;0.022;2023-03-01T08:24:36;5.88;;;2.00;;
37805;SDS011;25082;50.870;0.022;2023-03-01T08:27:03;4.30;;;1.92;;
37805;SDS011;25082;50.870;0.022;2023-03-01T08:29:32;9.50;;;2.55;;
37805;SDS011;25082;50.870;0.022;2023-03-01T08:31:58;8.02;;;2.20;;
37805;SDS011;25082;50.870;0.022;2023-03-01T08:34:24;4.63;;;2.40;;
37805;SDS011;25082;50.870;0.022;2023-03-01T08:36:50;4.53;;;2.08;;
37805;SDS011;25082;50.870;0.022;2023-03-01T08:39:17;6.25;;;1.90;;
37805;SDS011;25082;50.870;0.022;2023-03-01T08:41:44;4.00;;;1.90;;
37805;SDS011;25082;50.870;0.022;2023-03-01T08:44:11;3.95;;;2.20;;
37805;SDS011;25082;50.870;0.022;2023-03-01T08:46:39;6.85;;;2.47;;
37805;SDS011;25082;50.870;0.022;2023-03-01T08:49:10;5.90;;;2.78;;
37805;SDS011;25082;50.870;0.022;2023-03-01T08:51:41;3.72;;;2.08;;
37805;SDS011;25082;50.870;0.022;2023-03-01T08:54:09;5.43;;;2.22;;
37805;SDS011;25082;50.870;0.022;2023-03-01T08:56:38;7.50;;;2.25;;
37805;SDS011;25082;50.870;0.022;2023-03-01T08:59:03;8.05;;;2.38;;
37805;SDS011;25082;50.870;0.022;2023-03-01T09:01:29;5.65;;;2.33;;
37805;SDS011;25082;50.870;0.022;2023-03-01T09:03:55;8.60;;;2.90;;
37805;SDS011;25082;50.870;0.022;2023-03-01T09:06:21;6.43;;;2.47;;
37805;SDS011;25082;50.870;0.022;2023-03-01T09:08:47;5.53;;;2.78;;
37805;SDS011;25082;50.870;0.022;2023-03-01T09:11:16;5.78;;;2.40;;
37805;SDS011;25082;50.870;0.022;2023-03-01T09:13:44;3.78;;;1.75;;
37805;SDS011;25082;50.870;0.022;2023-03-01T09:16:12;5.32;;;2.20;;
37805;SDS011;25082;50.870;0.022;2023-03-01T09:18:39;5.45;;;1.98;;
37805;SDS011;25082;50.870;0.022;2023-03-01T09:23:32;6.93;;;2.95;;
37805;SDS011;25082;50.870;0.022;2023-03-01T09:25:59;4.07;;;1.58;;
37805;SDS011;25082;50.870;0.022;2023-03-01T09:28:25;6.28;;;1.77;;
37805;SDS011;25082;50.870;0.022;2023-03-01T09:30:51;3.08;;;1.40;;
37805;SDS011;25082;50.870;0.022;2023-03-01T09:33:17;3.25;;;1.30;;
37805;SDS011;25082;50.870;0.022;2023-03-01T09:35:42;5.47;;;2.10;;
37805;SDS011;25082;50.870;0.022;2023-03-01T09:38:12;4.97;;;2.03;;
37805;SDS011;25082;50.870;0.022;2023-03-01T09:40:42;3.63;;;1.50;;
37805;SDS011;25082;50.870;0.022;2023-03-01T09:45:55;3.05;;;1.70;;
37805;SDS011;25082;50.870;0.022;2023-03-01T09:48:31;9.45;;;1.60;;
37805;SDS011;25082;50.870;0.022;2023-03-01T09:51:07;3.50;;;1.60;;
37805;SDS011;25082;50.870;0.022;2023-03-01T09:53:39;4.28;;;1.33;;
37805;SDS011;25082;50.870;0.022;2023-03-01T09:56:05;4.18;;;1.48;;
37805;SDS011;25082;50.870;0.022;2023-03-01T09:58:47;12.80;;;2.08;;
37805;SDS011;25082;50.870;0.022;2023-03-01T10:09:35;2.88;;;1.35;;
37805;SDS011;25082;50.870;0.022;2023-03-01T10:12:04;3.78;;;1.00;;
37805;SDS011;25082;50.870;0.022;2023-03-01T10:17:51;1.50;;;0.93;;
37805;SDS011;25082;50.870;0.022;2023-03-01T10:20:18;5.47;;;1.35;;
37805;SDS011;25082;50.870;0.022;2023-03-01T10:22:49;10.30;;;1.95;;
37805;SDS011;25082;50.870;0.022;2023-03-01T10:25:29;25.27;;;3.72;;
37805;SDS011;25082;50.870;0.022;2023-03-01T10:28:25;18.23;;;2.60;;
37805;SDS011;25082;50.870;0.022;2023-03-01T10:30:58;10.90;;;2.15;;
37805;SDS011;25082;50.870;0.022;2023-03-01T10:33:26;12.30;;;2.45;;
37805;SDS011;25082;50.870;0.022;2023-03-01T10:35:57;14.38;;;2.95;;
37805;SDS011;25082;50.870;0.022;2023-03-01T10:38:23;6.88;;;2.70;;
37805;SDS011;25082;50.870;0.022;2023-03-01T10:40:58;13.60;;;3.22;;
37805;SDS011;25082;50.870;0.022;2023-03-01T10:43:43;8.60;;;2.30;;
37805;SDS011;25082;50.870;0.022;2023-03-01T10:49:27;11.48;;;2.58;;
37805;SDS011;25082;50.870;0.022;2023-03-01T10:56:56;13.70;;;2.10;;
37805;SDS011;25082;50.870;0.022;2023-03-01T10:59:34;25.63;;;3.40;;
37805;SDS011;25082;50.870;0.022;2023-03-01T11:07:22;20.05;;;3.25;;
37805;SDS011;25082;50.870;0.022;2023-03-01T11:09:47;9.25;;;1.98;;
37805;SDS011;25082;50.870;0.022;2023-03-01T11:12:14;15.48;;;3.15;;
37805;SDS011;25082;50.870;0.022;2023-03-01T11:14:52;18.77;;;2.65;;
37805;SDS011;25082;50.870;0.022;2023-03-01T11:20:05;13.13;;;2.20;;
37805;SDS011;25082;50.870;0.022;2023-03-01T11:22:39;11.18;;;2.15;;
37805;SDS011;25082;50.870;0.022;2023-03-01T11:25:13;11.88;;;2.50;;
37805;SDS011;25082;50.870;0.022;2023-03-01T11:27:40;14.32;;;2.03;;
37805;SDS011;25082;50.870;0.022;2023-03-01T11:35:22;13.68;;;2.38;;
37805;SDS011;25082;50.870;0.022;2023-03-01T11:43:19;12.15;;;2.85;;
37805;SDS011;25082;50.870;0.022;2023-03-01T11:54:33;4.93;;;1.30;;
37805;SDS011;25082;50.870;0.022;2023-03-01T12:14:08;10.75;;;1.88;;
37805;SDS011;25082;50.870;0.022;2023-03-01T12:39:11;9.65;;;2.20;;
37805;SDS011;25082;50.870;0.022;2023-03-01T12:41:41;19.52;;;1.90;;
37805;SDS011;25082;50.870;0.022;2023-03-01T12:49:45;6.45;;;1.27;;
37805;SDS011;25082;50.870;0.022;2023-03-01T12:52:22;5.15;;;1.40;;
37805;SDS011;25082;50.870;0.022;2023-03-01T12:54:55;6.50;;;1.20;;
37805;SDS011;25082;50.870;0.022;2023-03-01T12:57:38;7.75;;;2.10;;
37805;SDS011;25082;50.870;0.022;2023-03-01T13:08:49;4.85;;;1.27;;
37805;SDS011;25082;50.870;0.022;2023-03-01T13:11:29;6.93;;;1.48;;
37805;SDS011;25082;50.870;0.022;2023-03-01T13:16:45;6.30;;;1.60;;
37805;SDS011;25082;50.870;0.022;2023-03-01T13:19:23;5.15;;;1.00;;
37805;SDS011;25082;50.870;0.022;2023-03-01T13:21:52;4.03;;;1.02;;
37805;SDS011;25082;50.870;0.022;2023-03-01T13:32:23;4.38;;;1.02;;
37805;SDS011;25082;50.870;0.022;2023-03-01T13:34:59;6.40;;;1.13;;
37805;SDS011;25082;50.870;0.022;2023-03-01T13:37:31;1.70;;;0.80;;
37805;SDS011;25082;50.870;0.022;2023-03-01T13:40:01;7.18;;;1.13;;
37805;SDS011;25082;50.870;0.022;2023-03-01T13:42:51;3.60;;;0.77;;
37805;SDS011;25082;50.870;0.022;2023-03-01T13:45:20;2.78;;;0.90;;
37805;SDS011;25082;50.870;0.022;2023-03-01T13:47:52;7.25;;;1.20;;
37805;SDS011;25082;50.870;0.022;2023-03-01T13:50:31;4.03;;;0.80;;
37805;SDS011;25082;50.870;0.022;2023-03-01T13:53:03;1.65;;;0.90;;
37805;SDS011;25082;50.870;0.022;2023-03-01T13:58:22;3.45;;;1.08;;
37805;SDS011;25082;50.870;0.022;2023-03-01T14:03:30;3.08;;;1.02;;
37805;SDS011;25082;50.870;0.022;2023-03-01T14:06:03;2.53;;;1.17;;
37805;SDS011;25082;50.870;0.022;2023-03-01T14:08:34;3.53;;;0.93;;
37805;SDS011;25082;50.870;0.022;2023-03-01T14:19:21;6.35;;;1.08;;
37805;SDS011;25082;50.870;0.022;2023-03-01T14:24:27;2.75;;;0.88;;
37805;SDS011;25082;50.870;0.022;2023-03-01T14:26:53;1.83;;;0.73;;
37805;SDS011;25082;50.870;0.022;2023-03-01T14:29:26;5.38;;;1.15;;
37805;SDS011;25082;50.870;0.022;2023-03-01T14:32:07;4.40;;;1.10;;
37805;SDS011;25082;50.870;0.022;2023-03-01T14:34:43;4.28;;;1.00;;
37805;SDS011;25082;50.870;0.022;2023-03-01T14:37:20;2.78;;;0.85;;
37805;SDS011;25082;50.870;0.022;2023-03-01T14:39:51;2.55;;;0.80;;
37805;SDS011;25082;50.870;0.022;2023-03-01T14:42:18;5.43;;;1.50;;
37805;SDS011;25082;50.870;0.022;2023-03-01T14:44:46;7.03;;;0.90;;
37805;SDS011;25082;50.870;0.022;2023-03-01T14:47:16;6.63;;;1.10;;
37805;SDS011;25082;50.870;0.022;2023-03-01T14:49:53;2.08;;;1.15;;
37805;SDS011;25082;50.870;0.022;2023-03-01T14:52:44;4.10;;;0.93;;
37805;SDS011;25082;50.870;0.022;2023-03-01T14:55:15;1.95;;;0.75;;
37805;SDS011;25082;50.870;0.022;2023-03-01T14:57:47;2.63;;;0.73;;
37805;SDS011;25082;50.870;0.022;2023-03-01T15:00:19;1.55;;;0.80;;
37805;SDS011;25082;50.870;0.022;2023-03-01T15:02:50;2.17;;;0.88;;
37805;SDS011;25082;50.870;0.022;2023-03-01T15:05:19;2.72;;;0.93;;
37805;SDS011;25082;50.870;0.022;2023-03-01T15:07:59;2.63;;;0.70;;
37805;SDS011;25082;50.870;0.022;2023-03-01T15:10:28;3.05;;;1.05;;
37805;SDS011;25082;50.870;0.022;2023-03-01T15:12:55;5.68;;;1.02;;
37805;SDS011;25082;50.870;0.022;2023-03-01T15:15:36;6.03;;;1.00;;
37805;SDS011;25082;50.870;0.022;2023-03-01T15:18:22;3.33;;;0.80;;
37805;SDS011;25082;50.870;0.022;2023-03-01T15:20:52;4.68;;;0.85;;
37805;SDS011;25082;50.870;0.022;2023-03-01T15:23:22;2.25;;;0.70;;
37805;SDS011;25082;50.870;0.022;2023-03-01T15:25:53;2.92;;;0.70;;
37805;SDS011;25082;50.870;0.022;2023-03-01T15:28:42;2.47;;;0.80;;
37805;SDS011;25082;50.870;0.022;2023-03-01T15:33:48;2.20;;;0.88;;
37805;SDS011;25082;50.870;0.022;2023-03-01T15:36:30;2.10;;;0.82;;
37805;SDS011;25082;50.870;0.022;2023-03-01T15:38:58;9.95;;;1.10;;
37805;SDS011;25082;50.870;0.022;2023-03-01T15:41:32;11.77;;;1.65;;
37805;SDS011;25082;50.870;0.022;2023-03-01T15:44:25;8.27;;;1.13;;
37805;SDS011;25082;50.870;0.022;2023-03-01T15:46:49;3.40;;;0.98;;
37805;SDS011;25082;50.870;0.022;2023-03-01T15:49:58;6.30;;;1.35;;
37805;SDS011;25082;50.870;0.022;2023-03-01T15:55:06;7.10;;;0.90;;
37805;SDS011;25082;50.870;0.022;2023-03-01T15:57:59;6.45;;;0.95;;
37805;SDS011;25082;50.870;0.022;2023-03-01T16:00:38;3.75;;;0.90;;
37805;SDS011;25082;50.870;0.022;2023-03-01T16:03:04;4.22;;;0.60;;
37805;SDS011;25082;50.870;0.022;2023-03-01T16:05:32;5.07;;;1.10;;
37805;SDS011;25082;50.870;0.022;2023-03-01T16:08:02;5.38;;;0.95;;
37805;SDS011;25082;50.870;0.022;2023-03-01T16:10:29;1.92;;;0.60;;
37805;SDS011;25082;50.870;0.022;2023-03-01T16:12:56;2.83;;;0.70;;
37805;SDS011;25082;50.870;0.022;2023-03-01T16:15:23;2.25;;;1.10;;
37805;SDS011;25082;50.870;0.022;2023-03-01T16:17:50;8.10;;;1.33;;
37805;SDS011;25082;50.870;0.022;2023-03-01T16:20:17;4.47;;;1.33;;
37805;SDS011;25082;50.870;0.022;2023-03-01T16:22:43;2.65;;;1.08;;
37805;SDS011;25082;50.870;0.022;2023-03-01T16:25:10;5.35;;;1.88;;
37805;SDS011;25082;50.870;0.022;2023-03-01T16:27:37;7.43;;;3.15;;
37805;SDS011;25082;50.870;0.022;2023-03-01T16:30:04;6.82;;;2.47;;
37805;SDS011;25082;50.870;0.022;2023-03-01T16:32:30;9.15;;;3.13;;
37805;SDS011;25082;50.870;0.022;2023-03-01T16:34:56;6.90;;;2.53;;
37805;SDS011;25082;50.870;0.022;2023-03-01T16:37:22;9.55;;;2.22;;
37805;SDS011;25082;50.870;0.022;2023-03-01T16:39:48;7.70;;;2.53;;
37805;SDS011;25082;50.870;0.022;2023-03-01T16:42:17;6.53;;;2.33;;
37805;SDS011;25082;50.870;0.022;2023-03-01T16:44:42;6.45;;;2.00;;
37805;SDS011;25082;50.870;0.022;2023-03-01T16:47:08;3.05;;;1.80;;
37805;SDS011;25082;50.870;0.022;2023-03-01T16:49:34;5.45;;;1.73;;
37805;SDS011;25082;50.870;0.022;2023-03-01T16:52:00;4.50;;;1.90;;
37805;SDS011;25082;50.870;0.022;2023-03-01T16:54:25;6.25;;;1.65;;
37805;SDS011;25082;50.870;0.022;2023-03-01T16:56:51;5.72;;;1.90;;
37805;SDS011;25082;50.870;0.022;2023-03-01T16:59:17;8.70;;;2.58;;
37805;SDS011;25082;50.870;0.022;2023-03-01T17:01:44;6.45;;;2.00;;
37805;SDS011;25082;50.870;0.022;2023-03-01T17:04:11;9.23;;;2.53;;
37805;SDS011;25082;50.870;0.022;2023-03-01T17:06:37;6.65;;;2.00;;
37805;SDS011;25082;50.870;0.022;2023-03-01T17:09:03;7.28;;;1.92;;
37805;SDS011;25082;50.870;0.022;2023-03-01T17:11:30;6.10;;;2.22;;
37805;SDS011;25082;50.870;0.022;2023-03-01T17:13:55;9.18;;;1.90;;
37805;SDS011;25082;50.870;0.022;2023-03-01T17:16:21;7.55;;;2.00;;
37805;SDS011;25082;50.870;0.022;2023-03-01T17:18:47;4.40;;;1.60;;
37805;SDS011;25082;50.870;0.022;2023-03-01T17:21:14;5.63;;;1.40;;
37805;SDS011;25082;50.870;0.022;2023-03-01T17:23:41;7.90;;;1.92;;
37805;SDS011;25082;50.870;0.022;2023-03-01T17:26:08;5.75;;;1.42;;
37805;SDS011;25082;50.870;0.022;2023-03-01T17:28:35;3.22;;;1.35;;
37805;SDS011;25082;50.870;0.022;2023-03-01T17:31:02;2.75;;;1.05;;
37805;SDS011;25082;50.870;0.022;2023-03-01T17:33:29;3.70;;;1.50;;
37805;SDS011;25082;50.870;0.022;2023-03-01T17:35:56;3.83;;;0.85;;
37805;SDS011;25082;50.870;0.022;2023-03-01T17:38:22;5.80;;;1.75;;
37805;SDS011;25082;50.870;0.022;2023-03-01T17:40:48;5.47;;;1.42;;